Hopeful Heights, Kentucky
Current Conditions -  °F | °C
As of 8:52 PM on Wednesday 26 Nov 2014 (Local Time) from KCVG Reporting Station
Overcast Overcast  
Wind Chill: 27°   Ceiling: 16000
Heat Index: 34°   Visibility: 9mi
Dew Point: 24°   Wind: 9mph
Humidity: 67%   Direction: 30°NNE
Pressure: 30.04"   Gusts: NA
Location:  38.997°N, 84.6517°W
Report Text: KCVG 270152Z 03008KT 9SM SCT120 OVC160 01/M04 A3004 RMK AO2 SLP177 T00111044
Loading
Personal Weather Stations






























Interactive Weather Map New forecast layout! Learn more

10-Day Weather Forecast

Advertisements
Track Severe Weather on mobile